createdAt,value
2023-03-03T00:02:20.703Z,100.00
2023-03-03T00:04:47.094Z,100.00
2023-03-03T00:07:15.549Z,100.00
2023-03-03T00:09:41.843Z,100.00
2023-03-03T00:12:08.142Z,100.00
2023-03-03T00:14:34.518Z,100.00
2023-03-03T00:17:00.811Z,100.00
2023-03-03T00:19:27.139Z,100.00
2023-03-03T00:21:53.467Z,100.00
2023-03-03T00:24:20.050Z,100.00
2023-03-03T00:26:46.427Z,100.00
2023-03-03T00:29:12.836Z,100.00
2023-03-03T00:31:39.160Z,100.00
2023-03-03T00:34:06.313Z,100.00
2023-03-03T00:36:32.882Z,100.00
2023-03-03T00:38:59.255Z,100.00
2023-03-03T00:41:25.553Z,100.00
2023-03-03T00:43:51.926Z,100.00
2023-03-03T00:46:19.078Z,100.00
2023-03-03T00:48:45.472Z,100.00
2023-03-03T00:51:12.014Z,100.00
2023-03-03T00:53:38.590Z,100.00
2023-03-03T00:56:04.921Z,100.00
2023-03-03T00:58:31.322Z,100.00
2023-03-03T01:00:58.963Z,100.00
2023-03-03T01:03:25.319Z,100.00
2023-03-03T01:05:51.645Z,100.00
2023-03-03T01:08:18.016Z,100.00
2023-03-03T01:10:44.325Z,100.00
2023-03-03T01:13:10.641Z,100.00
2023-03-03T01:15:36.958Z,100.00
2023-03-03T01:18:03.341Z,100.00
2023-03-03T01:20:29.673Z,100.00
2023-03-03T01:22:55.980Z,100.00
2023-03-03T01:25:22.284Z,100.00
2023-03-03T01:27:48.589Z,100.00
2023-03-03T01:30:14.940Z,100.00
2023-03-03T01:32:41.232Z,100.00
2023-03-03T01:35:07.587Z,100.00
2023-03-03T01:37:33.908Z,100.00
2023-03-03T01:40:00.289Z,100.00
2023-03-03T01:42:29.331Z,100.00
2023-03-03T01:44:55.663Z,100.00
2023-03-03T01:47:21.975Z,100.00
2023-03-03T01:49:48.358Z,100.00
2023-03-03T01:52:14.702Z,100.00
2023-03-03T01:54:41.003Z,100.00
2023-03-03T01:57:07.337Z,100.00
2023-03-03T01:59:33.649Z,100.00
2023-03-03T02:02:00.020Z,100.00
2023-03-03T02:04:26.622Z,100.00
2023-03-03T02:06:53.097Z,100.00
2023-03-03T02:09:19.477Z,100.00
2023-03-03T02:11:45.885Z,100.00
2023-03-03T02:14:12.201Z,100.00
2023-03-03T02:16:38.520Z,100.00
2023-03-03T02:19:04.829Z,100.00
2023-03-03T02:21:31.153Z,100.00
2023-03-03T02:23:57.454Z,100.00
2023-03-03T02:26:23.929Z,100.00
2023-03-03T02:28:50.284Z,100.00
2023-03-03T02:31:16.704Z,100.00
2023-03-03T02:33:43.039Z,100.00
2023-03-03T02:36:09.344Z,100.00
2023-03-03T02:38:35.675Z,100.00
2023-03-03T02:41:02.077Z,100.00
2023-03-03T02:43:28.418Z,100.00
2023-03-03T02:45:54.947Z,100.00
2023-03-03T02:48:21.263Z,100.00
2023-03-03T02:50:47.585Z,100.00
2023-03-03T02:53:13.894Z,100.00
2023-03-03T02:55:40.226Z,100.00
2023-03-03T02:58:06.540Z,100.00
2023-03-03T03:00:33.349Z,100.00
2023-03-03T03:02:59.949Z,100.00
2023-03-03T03:05:26.259Z,100.00
2023-03-03T03:07:52.581Z,100.00
2023-03-03T03:10:18.905Z,100.00
2023-03-03T03:12:45.231Z,100.00
2023-03-03T03:15:11.770Z,100.00
2023-03-03T03:17:38.251Z,100.00
2023-03-03T03:20:04.546Z,100.00
2023-03-03T03:22:30.871Z,100.00
2023-03-03T03:24:57.631Z,100.00
2023-03-03T03:27:23.955Z,100.00
2023-03-03T03:29:50.281Z,100.00
2023-03-03T03:32:16.656Z,100.00
2023-03-03T03:34:42.954Z,100.00
2023-03-03T03:37:09.997Z,100.00
2023-03-03T03:39:36.621Z,100.00
2023-03-03T03:42:02.970Z,100.00
2023-03-03T03:44:29.338Z,100.00
2023-03-03T03:46:55.651Z,100.00
2023-03-03T03:49:22.075Z,100.00
2023-03-03T03:51:48.402Z,100.00
2023-03-03T03:54:14.726Z,100.00
2023-03-03T03:56:41.040Z,100.00
2023-03-03T03:59:07.384Z,100.00
2023-03-03T04:01:33.719Z,100.00
2023-03-03T04:04:00.036Z,100.00
2023-03-03T04:06:26.409Z,100.00
2023-03-03T04:08:52.717Z,100.00
2023-03-03T04:11:19.049Z,100.00
2023-03-03T04:13:45.373Z,100.00
2023-03-03T04:16:11.782Z,100.00
2023-03-03T04:18:38.200Z,100.00
2023-03-03T04:21:04.535Z,100.00
2023-03-03T04:23:30.953Z,100.00
2023-03-03T04:25:57.258Z,100.00
2023-03-03T04:28:25.381Z,100.00
2023-03-03T04:30:51.715Z,100.00
2023-03-03T04:33:18.039Z,100.00
2023-03-03T04:35:44.419Z,100.00
2023-03-03T04:38:10.878Z,100.00
2023-03-03T04:40:37.211Z,100.00
2023-03-03T04:43:04.260Z,100.00
2023-03-03T04:45:30.615Z,100.00
2023-03-03T04:47:56.960Z,100.00
2023-03-03T04:50:23.266Z,100.00
2023-03-03T04:52:49.609Z,100.00
2023-03-03T04:55:16.896Z,100.00
2023-03-03T04:57:43.222Z,100.00
2023-03-03T05:00:09.537Z,100.00
2023-03-03T05:02:35.885Z,100.00
2023-03-03T05:05:02.308Z,100.00
2023-03-03T05:07:28.651Z,100.00
2023-03-03T05:09:54.963Z,100.00
2023-03-03T05:12:21.322Z,100.00
2023-03-03T05:14:47.834Z,100.00
2023-03-03T05:17:14.499Z,100.00
2023-03-03T05:19:40.828Z,100.00
2023-03-03T05:22:07.161Z,100.00
2023-03-03T05:24:33.461Z,100.00
2023-03-03T05:26:59.811Z,100.00
2023-03-03T05:29:26.411Z,100.00
2023-03-03T05:31:52.840Z,100.00
2023-03-03T05:34:19.206Z,100.00
2023-03-03T05:36:45.517Z,100.00
2023-03-03T05:39:11.841Z,100.00
2023-03-03T05:41:38.206Z,100.00
2023-03-03T05:44:04.579Z,100.00
2023-03-03T05:46:30.911Z,100.00
2023-03-03T05:48:57.321Z,100.00
2023-03-03T05:51:23.641Z,100.00
2023-03-03T05:53:49.964Z,100.00
2023-03-03T05:56:16.288Z,100.00
2023-03-03T05:58:42.617Z,100.00
2023-03-03T06:01:08.982Z,100.00
2023-03-03T06:03:35.296Z,100.00
2023-03-03T06:06:01.593Z,100.00
2023-03-03T06:08:27.979Z,100.00
2023-03-03T06:10:54.279Z,100.00
2023-03-03T06:13:20.585Z,100.00
2023-03-03T06:15:46.929Z,100.00
2023-03-03T06:18:13.275Z,100.00
2023-03-03T06:20:39.630Z,100.00
2023-03-03T06:23:05.985Z,100.00
2023-03-03T06:25:32.304Z,100.00
2023-03-03T06:27:58.609Z,100.00
2023-03-03T06:30:27.039Z,100.00
2023-03-03T06:32:53.371Z,100.00
2023-03-03T06:35:19.779Z,100.00
2023-03-03T06:37:46.127Z,100.00
2023-03-03T06:40:12.489Z,100.00
2023-03-03T06:42:38.842Z,100.00
2023-03-03T06:45:05.167Z,100.00
2023-03-03T06:47:31.699Z,100.00
2023-03-03T06:49:58.014Z,100.00
2023-03-03T06:52:24.359Z,100.00
2023-03-03T06:54:50.712Z,100.00
2023-03-03T06:57:17.083Z,100.00
2023-03-03T06:59:43.397Z,100.00
2023-03-03T07:02:09.699Z,100.00
2023-03-03T07:04:36.253Z,100.00
2023-03-03T07:07:02.752Z,100.00
2023-03-03T07:09:29.073Z,100.00
2023-03-03T07:11:55.386Z,100.00
2023-03-03T07:14:21.734Z,100.00
2023-03-03T07:16:48.112Z,100.00
2023-03-03T07:19:14.444Z,100.00
2023-03-03T07:21:40.779Z,100.00
2023-03-03T07:24:07.129Z,100.00
2023-03-03T07:26:33.656Z,100.00
2023-03-03T07:28:59.995Z,100.00
2023-03-03T07:31:26.934Z,100.00
2023-03-03T07:33:53.412Z,100.00
2023-03-03T07:36:19.807Z,100.00
2023-03-03T07:38:46.152Z,100.00
2023-03-03T07:41:12.467Z,100.00
2023-03-03T07:43:38.849Z,100.00
2023-03-03T07:46:05.971Z,100.00
2023-03-03T07:48:32.329Z,100.00
2023-03-03T07:50:58.632Z,100.00
2023-03-03T07:53:24.928Z,100.00
2023-03-03T07:55:51.231Z,100.00
2023-03-03T07:58:17.596Z,100.00
2023-03-03T08:00:44.534Z,100.00
2023-03-03T08:03:11.001Z,100.00
2023-03-03T08:05:37.314Z,100.00
2023-03-03T08:08:03.781Z,100.00
2023-03-03T08:10:30.264Z,100.00
2023-03-03T08:12:56.621Z,100.00
2023-03-03T08:15:23.330Z,100.00
2023-03-03T08:17:49.714Z,100.00
2023-03-03T08:20:16.043Z,100.00
2023-03-03T08:22:43.653Z,100.00
2023-03-03T08:25:09.997Z,100.00
2023-03-03T08:27:36.339Z,100.00
2023-03-03T08:30:02.678Z,100.00
2023-03-03T08:32:29.187Z,100.00
2023-03-03T08:34:55.572Z,100.00
2023-03-03T08:37:22.008Z,100.00
2023-03-03T08:39:48.386Z,100.00
2023-03-03T08:42:16.235Z,100.00
2023-03-03T08:44:43.256Z,100.00
2023-03-03T08:47:09.625Z,100.00
2023-03-03T08:49:35.999Z,100.00
2023-03-03T08:52:02.317Z,100.00
2023-03-03T08:54:28.993Z,100.00
2023-03-03T08:56:55.397Z,100.00
2023-03-03T08:59:22.473Z,100.00
2023-03-03T09:01:48.845Z,100.00
2023-03-03T09:04:15.263Z,100.00
2023-03-03T09:06:41.752Z,100.00
2023-03-03T09:09:08.087Z,100.00
2023-03-03T09:11:34.471Z,100.00
2023-03-03T09:14:00.861Z,100.00
2023-03-03T09:16:27.248Z,100.00
2023-03-03T09:18:53.648Z,100.00
2023-03-03T09:21:19.961Z,100.00
2023-03-03T09:23:46.277Z,100.00
2023-03-03T09:26:12.575Z,100.00
2023-03-03T09:28:38.899Z,100.00
2023-03-03T09:31:07.524Z,100.00
2023-03-03T09:33:34.034Z,100.00
2023-03-03T09:36:00.405Z,100.00
2023-03-03T09:38:26.834Z,100.00
2023-03-03T09:40:53.634Z,100.00
2023-03-03T09:43:24.273Z,100.00
2023-03-03T09:45:50.679Z,100.00
2023-03-03T09:48:17.188Z,100.00
2023-03-03T09:50:43.544Z,100.00
2023-03-03T09:53:09.862Z,100.00
2023-03-03T09:55:37.295Z,100.00
2023-03-03T09:58:10.870Z,100.00
2023-03-03T10:00:37.658Z,100.00
2023-03-03T10:03:04.380Z,100.00
2023-03-03T10:05:30.767Z,100.00
2023-03-03T10:07:57.096Z,100.00
2023-03-03T10:10:23.409Z,100.00
2023-03-03T10:12:50.569Z,100.00
2023-03-03T10:15:17.147Z,100.00
2023-03-03T10:17:43.520Z,100.00
2023-03-03T10:20:09.846Z,100.00
2023-03-03T10:22:36.321Z,100.00
2023-03-03T10:25:02.853Z,100.00
2023-03-03T10:27:29.172Z,100.00
2023-03-03T10:29:56.645Z,100.00
2023-03-03T10:32:23.237Z,100.00
2023-03-03T10:34:49.694Z,100.00
2023-03-03T10:37:16.016Z,100.00
2023-03-03T10:39:42.350Z,100.00
2023-03-03T10:42:08.670Z,100.00
2023-03-03T10:44:34.988Z,100.00
2023-03-03T10:47:01.445Z,100.00
2023-03-03T10:49:28.766Z,100.00
2023-03-03T10:51:55.165Z,100.00
2023-03-03T10:54:21.716Z,100.00
2023-03-03T10:56:53.395Z,100.00
2023-03-03T10:59:20.073Z,100.00
2023-03-03T11:01:46.446Z,100.00
2023-03-03T11:04:12.877Z,100.00
2023-03-03T11:06:39.260Z,100.00
2023-03-03T11:09:05.575Z,100.00
2023-03-03T11:11:31.956Z,100.00
2023-03-03T11:13:58.284Z,100.00
2023-03-03T11:16:24.700Z,100.00
2023-03-03T11:18:51.133Z,100.00
2023-03-03T11:21:17.458Z,100.00
2023-03-03T11:23:43.805Z,100.00
2023-03-03T11:26:10.124Z,100.00
2023-03-03T11:28:36.541Z,100.00
2023-03-03T11:31:02.935Z,99.15
2023-03-03T11:33:29.367Z,99.17
2023-03-03T11:35:55.703Z,99.07
2023-03-03T11:38:22.094Z,98.07
2023-03-03T11:40:48.548Z,98.61
2023-03-03T11:43:26.315Z,98.82
2023-03-03T11:46:00.428Z,100.00
2023-03-03T11:48:26.787Z,99.11
2023-03-03T11:50:53.781Z,98.53
2023-03-03T11:53:20.133Z,100.00
2023-03-03T11:55:46.452Z,100.00
2023-03-03T11:58:12.760Z,100.00
2023-03-03T12:00:39.091Z,100.00
2023-03-03T12:03:05.506Z,99.55
2023-03-03T12:05:31.883Z,98.81
2023-03-03T12:07:58.243Z,98.14
2023-03-03T12:10:24.557Z,96.87
2023-03-03T12:12:50.877Z,96.83
2023-03-03T12:15:17.169Z,97.07
2023-03-03T12:17:43.527Z,98.21
2023-03-03T12:20:09.877Z,96.83
2023-03-03T12:22:36.837Z,96.81
2023-03-03T12:25:03.270Z,95.90
2023-03-03T12:27:29.673Z,95.88
2023-03-03T12:29:56.310Z,97.34
2023-03-03T12:32:22.849Z,95.76
2023-03-03T12:34:49.385Z,94.07
2023-03-03T12:37:15.768Z,93.82
2023-03-03T12:39:42.300Z,92.92
2023-03-03T12:42:08.725Z,93.93
2023-03-03T12:44:35.147Z,93.49
2023-03-03T12:47:02.080Z,93.45
2023-03-03T12:49:32.443Z,92.48
2023-03-03T12:52:01.404Z,92.08
2023-03-03T12:54:27.800Z,91.61
2023-03-03T12:56:54.953Z,90.87
2023-03-03T12:59:21.372Z,90.28
2023-03-03T13:01:47.782Z,89.13
2023-03-03T13:04:14.328Z,87.70
2023-03-03T13:06:40.845Z,88.14
2023-03-03T13:09:07.282Z,88.76
2023-03-03T13:11:33.726Z,88.38
2023-03-03T13:14:00.257Z,88.15
2023-03-03T13:16:40.254Z,88.18
2023-03-03T13:19:07.643Z,87.33
2023-03-03T13:21:34.168Z,88.08
2023-03-03T13:24:01.653Z,87.71
2023-03-03T13:26:29.774Z,87.14
2023-03-03T13:28:57.213Z,88.05
2023-03-03T13:31:23.643Z,89.62
2023-03-03T13:33:51.542Z,87.61
2023-03-03T13:36:17.947Z,88.83
2023-03-03T13:38:44.375Z,89.62
2023-03-03T13:41:10.802Z,88.79
2023-03-03T13:43:37.288Z,89.37
2023-03-03T13:46:05.679Z,89.15
2023-03-03T13:48:32.155Z,89.83
2023-03-03T13:50:58.646Z,89.00
2023-03-03T13:53:25.015Z,87.36
2023-03-03T13:55:51.662Z,85.38
2023-03-03T13:58:18.113Z,87.16
2023-03-03T14:00:44.991Z,85.19
2023-03-03T14:03:11.417Z,86.85
2023-03-03T14:05:38.535Z,88.04
2023-03-03T14:08:05.219Z,86.98
2023-03-03T14:10:31.618Z,87.74
2023-03-03T14:12:58.091Z,87.28
2023-03-03T14:15:24.969Z,87.49
2023-03-03T14:17:51.369Z,86.72
2023-03-03T14:20:17.766Z,87.16
2023-03-03T14:22:44.206Z,87.28
2023-03-03T14:25:10.676Z,88.43
2023-03-03T14:27:37.524Z,88.17
2023-03-03T14:30:04.036Z,88.27
2023-03-03T14:32:44.800Z,88.65
2023-03-03T14:35:11.944Z,88.10
2023-03-03T14:37:38.483Z,87.54
2023-03-03T14:40:05.014Z,88.00
2023-03-03T14:42:36.882Z,87.76
2023-03-03T14:45:04.912Z,86.82
2023-03-03T14:47:31.333Z,87.18
2023-03-03T14:50:00.509Z,88.86
2023-03-03T14:52:27.027Z,87.92
2023-03-03T14:54:53.504Z,87.97
2023-03-03T14:57:19.938Z,88.07
2023-03-03T14:59:46.417Z,87.96
2023-03-03T15:02:12.824Z,87.25
2023-03-03T15:04:39.422Z,86.53
2023-03-03T15:07:05.840Z,86.88
2023-03-03T15:09:37.675Z,85.27
2023-03-03T15:12:04.323Z,86.72
2023-03-03T15:14:30.826Z,87.41
2023-03-03T15:16:57.192Z,87.37
2023-03-03T15:19:23.574Z,86.42
2023-03-03T15:21:49.984Z,86.33
2023-03-03T15:24:16.432Z,87.00
2023-03-03T15:26:43.013Z,86.36
2023-03-03T15:29:09.435Z,86.37
2023-03-03T15:31:37.211Z,87.00
2023-03-03T15:34:03.694Z,87.75
2023-03-03T15:36:30.202Z,87.14
2023-03-03T15:38:56.911Z,87.03
2023-03-03T15:41:23.359Z,86.90
2023-03-03T15:43:49.759Z,86.21
2023-03-03T15:46:16.224Z,87.06
2023-03-03T15:48:42.675Z,86.91
2023-03-03T15:51:09.084Z,86.57
2023-03-03T15:53:37.391Z,86.03
2023-03-03T15:56:03.776Z,87.07
2023-03-03T15:58:30.414Z,87.18
2023-03-03T16:00:56.934Z,87.29
2023-03-03T16:03:23.302Z,88.40
2023-03-03T16:05:49.654Z,88.00
2023-03-03T16:08:16.028Z,88.49
2023-03-03T16:10:42.340Z,87.33
2023-03-03T16:13:08.674Z,88.16
2023-03-03T16:15:34.970Z,88.40
2023-03-03T16:18:01.304Z,88.42
2023-03-03T16:20:27.614Z,88.71
2023-03-03T16:22:53.947Z,88.56
2023-03-03T16:25:20.249Z,89.22
2023-03-03T16:27:46.580Z,89.24
2023-03-03T16:30:13.038Z,88.64
2023-03-03T16:32:39.483Z,89.27
2023-03-03T16:35:05.848Z,88.91
2023-03-03T16:37:32.322Z,90.66
2023-03-03T16:39:58.648Z,90.47
2023-03-03T16:42:24.952Z,90.55
2023-03-03T16:44:51.345Z,91.60
2023-03-03T16:47:17.703Z,91.89
2023-03-03T16:49:44.041Z,91.97
2023-03-03T16:52:10.389Z,91.61
2023-03-03T16:54:36.706Z,91.13
2023-03-03T16:57:03.073Z,91.16
2023-03-03T16:59:29.398Z,91.93
2023-03-03T17:01:55.696Z,92.05
2023-03-03T17:04:22.055Z,91.00
2023-03-03T17:06:48.394Z,90.74
2023-03-03T17:09:30.095Z,91.13
2023-03-03T17:12:00.742Z,91.48
2023-03-03T17:14:27.132Z,91.90
2023-03-03T17:16:53.512Z,92.75
2023-03-03T17:19:20.333Z,92.21
2023-03-03T17:21:46.664Z,91.42
2023-03-03T17:24:12.977Z,91.81
2023-03-03T17:26:39.342Z,92.41
2023-03-03T17:29:07.549Z,92.75
2023-03-03T17:31:33.900Z,92.58
2023-03-03T17:34:00.283Z,92.29
2023-03-03T17:36:26.815Z,92.65
2023-03-03T17:38:53.139Z,92.73
2023-03-03T17:41:19.471Z,93.06
2023-03-03T17:43:45.808Z,92.41
2023-03-03T17:46:12.169Z,92.25
2023-03-03T17:48:39.380Z,92.32
2023-03-03T17:51:05.721Z,91.55
2023-03-03T17:53:32.036Z,90.96
2023-03-03T17:55:58.427Z,90.72
2023-03-03T17:58:25.902Z,92.09
2023-03-03T18:00:52.229Z,92.37
2023-03-03T18:03:18.698Z,92.99
2023-03-03T18:05:45.223Z,92.41
2023-03-03T18:08:12.825Z,92.11
2023-03-03T18:10:40.428Z,91.57
2023-03-03T18:13:08.392Z,92.09
2023-03-03T18:15:34.798Z,92.57
2023-03-03T18:18:01.152Z,92.49
2023-03-03T18:20:27.478Z,91.99
2023-03-03T18:22:54.145Z,92.43
2023-03-03T18:25:20.770Z,93.34
2023-03-03T18:27:48.319Z,93.22
2023-03-03T18:30:14.702Z,93.95
2023-03-03T18:32:41.025Z,93.88
2023-03-03T18:35:07.413Z,94.14
2023-03-03T18:37:33.856Z,94.33
2023-03-03T18:40:00.183Z,93.49
2023-03-03T18:42:30.444Z,94.62
2023-03-03T18:44:57.433Z,94.27
2023-03-03T18:47:23.741Z,93.43
2023-03-03T18:49:50.210Z,93.79
2023-03-03T18:52:16.533Z,92.65
2023-03-03T18:54:42.866Z,93.20
2023-03-03T18:57:09.985Z,93.49
2023-03-03T18:59:36.521Z,94.11
2023-03-03T19:02:02.868Z,95.17
2023-03-03T19:04:29.195Z,94.24
2023-03-03T19:06:55.530Z,94.30
2023-03-03T19:09:21.868Z,93.52
2023-03-03T19:11:48.245Z,93.48
2023-03-03T19:14:14.561Z,95.09
2023-03-03T19:16:40.916Z,95.10
2023-03-03T19:19:07.225Z,93.94
2023-03-03T19:21:33.605Z,94.17
2023-03-03T19:24:00.648Z,93.55
2023-03-03T19:26:30.414Z,93.11
2023-03-03T19:28:56.817Z,94.60
2023-03-03T19:31:23.261Z,95.56
2023-03-03T19:33:52.866Z,96.08
2023-03-03T19:36:20.548Z,97.90
2023-03-03T19:38:46.851Z,97.01
2023-03-03T19:41:13.144Z,95.82
2023-03-03T19:43:39.438Z,96.81
2023-03-03T19:46:05.813Z,96.80
2023-03-03T19:48:32.179Z,96.32
2023-03-03T19:50:58.545Z,97.53
2023-03-03T19:53:24.868Z,97.66
2023-03-03T19:55:51.186Z,96.60
2023-03-03T19:58:18.510Z,96.18
2023-03-03T20:00:44.900Z,96.61
2023-03-03T20:03:11.253Z,95.85
2023-03-03T20:05:37.584Z,94.71
2023-03-03T20:08:03.942Z,95.62
2023-03-03T20:10:32.162Z,95.78
2023-03-03T20:13:02.680Z,95.89
2023-03-03T20:15:28.983Z,95.29
2023-03-03T20:17:55.385Z,96.03
2023-03-03T20:20:21.692Z,96.66
2023-03-03T20:22:48.060Z,96.63
2023-03-03T20:25:15.609Z,96.50
2023-03-03T20:27:41.962Z,97.39
2023-03-03T20:30:08.818Z,97.08
2023-03-03T20:32:35.248Z,96.20
2023-03-03T20:35:01.690Z,95.57
2023-03-03T20:37:28.004Z,95.03
2023-03-03T20:39:54.334Z,94.41
2023-03-03T20:42:20.649Z,95.37
2023-03-03T20:44:46.970Z,95.86
2023-03-03T20:47:13.290Z,95.90
2023-03-03T20:49:39.610Z,96.15
2023-03-03T20:52:06.201Z,96.32
2023-03-03T20:54:32.574Z,96.31
2023-03-03T20:56:58.948Z,96.22
2023-03-03T20:59:25.268Z,95.93
2023-03-03T21:01:53.272Z,96.11
2023-03-03T21:04:19.773Z,96.03
2023-03-03T21:06:46.238Z,95.64
2023-03-03T21:09:12.589Z,95.96
2023-03-03T21:11:38.891Z,95.92
2023-03-03T21:14:05.208Z,96.99
2023-03-03T21:16:32.144Z,97.23
2023-03-03T21:18:58.565Z,96.66
2023-03-03T21:23:56.291Z,96.82
2023-03-03T21:26:22.600Z,97.47
2023-03-03T21:28:48.941Z,96.87
2023-03-03T21:31:15.568Z,97.10
2023-03-03T21:33:41.941Z,97.52
2023-03-03T21:36:08.354Z,97.00
2023-03-03T21:38:34.682Z,96.56
2023-03-03T21:41:01.059Z,96.19
2023-03-03T21:43:27.390Z,96.41
2023-03-03T21:45:53.846Z,95.94
2023-03-03T21:48:20.211Z,96.29
2023-03-03T21:50:48.929Z,95.98
2023-03-03T21:53:15.240Z,96.61
2023-03-03T21:55:44.591Z,96.75
2023-03-03T21:58:10.918Z,95.80
2023-03-03T22:00:37.287Z,95.95
2023-03-03T22:03:04.132Z,96.63
2023-03-03T22:05:30.484Z,97.37
2023-03-03T22:07:56.794Z,97.18
2023-03-03T22:10:23.450Z,96.81
2023-03-03T22:12:49.777Z,97.21
2023-03-03T22:15:16.085Z,96.96
2023-03-03T22:17:43.272Z,96.40
2023-03-03T22:20:09.594Z,95.98
2023-03-03T22:22:35.940Z,96.05
2023-03-03T22:25:02.318Z,96.81
2023-03-03T22:27:28.667Z,96.85
2023-03-03T22:29:55.018Z,96.65
2023-03-03T22:32:21.353Z,96.48
2023-03-03T22:34:47.832Z,96.22
2023-03-03T22:37:14.200Z,96.37
2023-03-03T22:39:40.566Z,96.27
2023-03-03T22:42:06.872Z,95.20
2023-03-03T22:44:33.205Z,95.79
2023-03-03T22:46:59.677Z,96.35
2023-03-03T22:49:26.000Z,96.31
2023-03-03T22:51:52.350Z,96.03
2023-03-03T22:54:18.668Z,95.72
2023-03-03T22:56:44.972Z,95.35
2023-03-03T22:59:11.314Z,95.23
2023-03-03T23:01:37.638Z,95.69
2023-03-03T23:04:03.952Z,95.60
2023-03-03T23:06:30.253Z,94.60
2023-03-03T23:08:56.596Z,93.80
2023-03-03T23:11:24.723Z,93.42
2023-03-03T23:13:51.053Z,93.34
2023-03-03T23:16:17.455Z,93.00
2023-03-03T23:18:43.890Z,94.71
2023-03-03T23:21:10.197Z,94.56
2023-03-03T23:23:36.527Z,93.89
2023-03-03T23:26:02.916Z,93.75
2023-03-03T23:28:29.225Z,93.79
2023-03-03T23:30:55.555Z,93.33
2023-03-03T23:33:21.882Z,93.79
2023-03-03T23:35:49.937Z,94.59
2023-03-03T23:38:17.842Z,94.11
2023-03-03T23:40:44.273Z,94.06
2023-03-03T23:43:10.610Z,93.08
2023-03-03T23:45:36.931Z,93.54
2023-03-03T23:48:03.248Z,94.23
2023-03-03T23:50:29.634Z,94.64
2023-03-03T23:52:55.987Z,95.02
2023-03-03T23:55:22.319Z,94.50
2023-03-03T23:57:48.637Z,94.13
